createdAt,value
2023-05-02T00:00:08.790Z,9.443771
2023-05-02T00:01:07.955Z,9.443787
2023-05-02T00:02:08.012Z,9.443800
2023-05-02T00:03:08.008Z,9.443823
2023-05-02T00:04:08.020Z,9.443838
2023-05-02T00:05:07.917Z,9.443829
2023-05-02T00:06:07.978Z,9.443847
2023-05-02T00:07:07.963Z,9.443858
2023-05-02T00:08:07.929Z,9.443779
2023-05-02T00:09:08.008Z,9.443804
2023-05-02T00:10:07.911Z,9.443752
2023-05-02T00:11:07.902Z,9.443819
2023-05-02T00:12:07.893Z,9.443858
2023-05-02T00:13:07.997Z,9.443907
2023-05-02T00:14:07.872Z,9.443870
2023-05-02T00:15:07.873Z,9.443725
2023-05-02T00:16:07.864Z,9.443689
2023-05-02T00:17:07.949Z,9.443801
2023-05-02T00:18:07.922Z,9.443826
2023-05-02T00:19:07.933Z,9.443648
2023-05-02T00:20:07.836Z,9.443722
2023-05-02T00:21:07.817Z,9.443735
2023-05-02T00:22:07.809Z,9.443769
2023-05-02T00:23:07.890Z,9.443734
2023-05-02T00:24:07.827Z,9.443734
2023-05-02T00:25:07.804Z,9.443750
2023-05-02T00:26:07.830Z,9.443818
2023-05-02T00:27:07.792Z,9.443759
2023-05-02T00:28:07.819Z,9.443776
2023-05-02T00:29:07.830Z,9.443825
2023-05-02T00:30:07.814Z,9.443728
2023-05-02T00:31:08.795Z,9.443725
2023-05-02T00:32:07.799Z,9.443820
2023-05-02T00:33:07.815Z,9.443799
2023-05-02T00:34:07.815Z,9.443793
2023-05-02T00:35:07.732Z,9.443775
2023-05-02T00:36:07.713Z,9.443726
2023-05-02T00:37:07.729Z,9.443722
2023-05-02T00:38:07.834Z,9.443788
2023-05-02T00:39:07.733Z,9.443804
2023-05-02T00:40:07.720Z,9.443743
2023-05-02T00:41:07.698Z,9.443766
2023-05-02T00:42:07.695Z,9.443745
2023-05-02T00:43:07.744Z,9.443767
2023-05-02T00:44:07.697Z,9.443723
2023-05-02T00:45:07.675Z,9.443733
2023-05-02T00:46:07.739Z,9.443729
2023-05-02T00:47:07.704Z,9.443725
2023-05-02T00:48:07.717Z,9.443726
2023-05-02T00:49:07.673Z,9.443791
2023-05-02T00:50:07.663Z,9.443820
2023-05-02T00:51:07.626Z,9.443756
2023-05-02T00:52:07.617Z,9.443735
2023-05-02T00:53:07.653Z,9.443749
2023-05-02T00:54:07.613Z,9.443769
2023-05-02T00:55:07.733Z,9.443769
2023-05-02T00:56:07.646Z,9.443789
2023-05-02T00:57:07.653Z,9.443846
2023-05-02T00:58:07.629Z,9.443813
2023-05-02T00:59:07.652Z,9.443752
2023-05-02T01:00:07.600Z,9.443776
2023-05-02T01:01:07.630Z,9.443720
2023-05-02T01:02:07.682Z,9.443755
2023-05-02T01:03:07.776Z,9.443781
2023-05-02T01:04:07.774Z,9.443789
2023-05-02T01:05:07.584Z,9.443756
2023-05-02T01:06:07.577Z,9.443776
2023-05-02T01:07:07.517Z,9.443735
2023-05-02T01:08:08.495Z,9.443722
2023-05-02T01:09:07.533Z,9.443805
2023-05-02T01:10:07.520Z,9.443810
2023-05-02T01:11:07.482Z,9.443817
2023-05-02T01:12:07.474Z,9.443780
2023-05-02T01:13:07.529Z,9.443774
2023-05-02T01:14:07.502Z,9.443746
2023-05-02T01:15:07.475Z,9.443716
2023-05-02T01:16:07.536Z,9.443673
2023-05-02T01:17:07.533Z,9.443629
2023-05-02T01:18:07.504Z,9.443661
2023-05-02T01:19:07.467Z,9.443804
2023-05-02T01:20:07.424Z,9.443764
2023-05-02T01:21:07.434Z,9.443724
2023-05-02T01:22:07.423Z,9.443696
2023-05-02T01:23:07.425Z,9.443686
2023-05-02T01:24:07.416Z,9.443686
2023-05-02T01:25:08.282Z,9.443668
2023-05-02T01:26:07.435Z,9.443661
2023-05-02T01:27:07.418Z,9.443658
2023-05-02T01:28:07.388Z,9.443667
2023-05-02T01:29:07.385Z,9.443678
2023-05-02T01:30:07.374Z,9.443698
2023-05-02T01:31:07.389Z,9.443666
2023-05-02T01:32:07.599Z,9.443597
2023-05-02T01:33:07.397Z,9.443586
2023-05-02T01:34:07.360Z,9.443674
2023-05-02T01:35:07.386Z,9.443720
2023-05-02T01:36:07.328Z,9.443730
2023-05-02T01:37:07.326Z,9.443729
2023-05-02T01:38:07.301Z,9.443756
2023-05-02T01:39:07.334Z,9.443748
2023-05-02T01:40:07.300Z,9.443718
2023-05-02T01:41:07.337Z,9.443727
2023-05-02T01:42:07.305Z,9.443750
2023-05-02T01:43:07.329Z,9.443765
2023-05-02T01:44:07.302Z,9.443787
2023-05-02T01:45:07.268Z,9.443797
2023-05-02T01:46:07.299Z,9.443762
2023-05-02T01:47:07.517Z,9.443722
2023-05-02T01:48:07.327Z,9.443745
2023-05-02T01:49:07.259Z,9.443743
2023-05-02T01:50:07.217Z,9.443773
2023-05-02T01:51:07.273Z,9.443820
2023-05-02T01:52:07.274Z,9.443807
2023-05-02T01:53:07.214Z,9.443810
2023-05-02T01:54:07.733Z,9.443779
2023-05-02T01:55:07.241Z,9.443828
2023-05-02T01:56:07.206Z,9.443762
2023-05-02T01:57:07.197Z,9.443810
2023-05-02T01:58:07.210Z,9.443890
2023-05-02T01:59:07.168Z,9.443822
2023-05-02T02:00:07.201Z,9.443871
2023-05-02T02:01:07.209Z,9.443910
2023-05-02T02:02:07.297Z,9.443886
2023-05-02T02:03:07.219Z,9.443782
2023-05-02T02:04:07.194Z,9.443837
2023-05-02T02:05:07.154Z,9.443745
2023-05-02T02:06:07.748Z,9.443769
2023-05-02T02:07:07.142Z,9.443698
2023-05-02T02:08:07.134Z,9.443645
2023-05-02T02:09:07.091Z,9.443695
2023-05-02T02:10:07.118Z,9.443730
2023-05-02T02:11:07.092Z,9.443724
2023-05-02T02:12:07.136Z,9.443684
2023-05-02T02:13:07.130Z,9.443682
2023-05-02T02:14:07.080Z,9.443826
2023-05-02T02:15:07.132Z,9.443659
2023-05-02T02:16:07.080Z,9.443585
2023-05-02T02:17:07.179Z,9.443569
2023-05-02T02:18:07.825Z,9.443595
2023-05-02T02:19:07.048Z,9.443606
2023-05-02T02:20:07.052Z,9.443550
2023-05-02T02:21:07.072Z,9.443596
2023-05-02T02:22:07.026Z,9.443578
2023-05-02T02:23:07.002Z,9.443641
2023-05-02T02:24:07.007Z,9.443659
2023-05-02T02:25:06.995Z,9.443676
2023-05-02T02:26:39.522Z,9.443619
2023-05-02T02:27:39.405Z,9.443610
2023-05-02T02:28:39.407Z,9.443627
2023-05-02T02:29:06.979Z,9.443751
2023-05-02T02:30:40.430Z,9.443795
2023-05-02T02:31:39.455Z,9.443757
2023-05-02T02:32:40.566Z,9.443774
2023-05-02T02:33:40.422Z,9.443724
2023-05-02T02:34:07.201Z,9.443755
2023-05-02T02:36:55.935Z,9.443683
2023-05-02T02:37:55.921Z,9.443681
2023-05-02T02:38:55.938Z,9.443777
2023-05-02T02:39:55.915Z,9.443830
2023-05-02T02:40:56.018Z,9.443786
2023-05-02T02:41:55.887Z,9.443779
2023-05-02T02:42:55.895Z,9.443775
2023-05-02T02:43:55.877Z,9.443773
2023-05-02T02:44:55.861Z,9.443740
2023-05-02T02:45:55.980Z,9.443658
2023-05-02T02:46:55.909Z,9.443524
2023-05-02T02:47:55.926Z,9.443619
2023-05-02T02:48:55.824Z,9.443658
2023-05-02T02:49:55.836Z,9.443788
2023-05-02T02:50:55.898Z,9.443814
2023-05-02T02:51:55.801Z,9.443725
2023-05-02T02:52:55.825Z,9.443704
2023-05-02T02:53:55.825Z,9.443744
2023-05-02T02:54:55.799Z,9.443715
2023-05-02T02:55:55.814Z,9.443653
2023-05-02T02:56:55.787Z,9.443714
2023-05-02T02:57:55.773Z,9.443708
2023-05-02T02:58:55.777Z,9.443753
2023-05-02T02:59:55.801Z,9.443730
2023-05-02T03:00:55.737Z,9.443740
2023-05-02T03:01:55.795Z,9.443703
2023-05-02T03:02:55.819Z,9.443694
2023-05-02T03:03:55.797Z,9.443688
2023-05-02T03:04:55.734Z,9.443720
2023-05-02T03:05:55.716Z,9.443747
2023-05-02T03:06:55.844Z,9.443687
2023-05-02T03:07:55.696Z,9.443783
2023-05-02T03:08:55.709Z,9.443708
2023-05-02T03:09:55.697Z,9.443691
2023-05-02T03:10:55.759Z,9.443730
2023-05-02T03:11:55.688Z,9.443668
2023-05-02T03:12:55.992Z,9.443707
2023-05-02T03:13:55.693Z,9.443690
2023-05-02T03:14:55.702Z,9.443634
2023-05-02T03:15:55.797Z,9.443655
2023-05-02T03:16:55.649Z,9.443709
2023-05-02T03:17:55.695Z,9.443758
2023-05-02T03:18:55.696Z,9.443749
2023-05-02T03:19:55.650Z,9.443757
2023-05-02T03:20:55.629Z,9.443734
2023-05-02T03:21:55.618Z,9.443743
2023-05-02T03:22:55.647Z,9.443731
2023-05-02T03:23:55.604Z,9.443689
2023-05-02T03:24:55.600Z,9.443709
2023-05-02T03:25:55.619Z,9.443683
2023-05-02T03:26:55.589Z,9.443664
2023-05-02T03:27:55.602Z,9.443708
2023-05-02T03:28:55.590Z,9.443676
2023-05-02T03:29:55.611Z,9.443661
2023-05-02T03:30:55.575Z,9.443670
2023-05-02T03:31:55.624Z,9.443671
2023-05-02T03:32:55.644Z,9.443695
2023-05-02T03:33:55.508Z,9.443698
2023-05-02T03:34:55.517Z,9.443677
2023-05-02T03:35:55.525Z,9.443741
2023-05-02T03:36:55.673Z,9.443696
2023-05-02T03:37:55.526Z,9.443662
2023-05-02T03:38:55.493Z,9.443647
2023-05-02T03:39:55.479Z,9.443672
2023-05-02T03:40:55.535Z,9.443710
2023-05-02T03:41:55.518Z,9.443716
2023-05-02T03:42:55.476Z,9.443686
2023-05-02T03:43:55.531Z,9.443692
2023-05-02T03:44:55.512Z,9.443666
2023-05-02T03:45:55.489Z,9.443677
2023-05-02T03:46:55.502Z,9.443664
2023-05-02T03:47:55.536Z,9.443597
2023-05-02T03:48:55.462Z,9.443615
2023-05-02T03:49:55.475Z,9.443620
2023-05-02T03:50:55.453Z,9.443590
2023-05-02T03:51:55.423Z,9.443659
2023-05-02T03:52:55.434Z,9.443604
2023-05-02T03:53:55.444Z,9.443548
2023-05-02T03:54:55.397Z,9.443565
2023-05-02T03:55:55.435Z,9.443587
2023-05-02T03:56:55.394Z,9.443643
2023-05-02T03:57:55.384Z,9.443653
2023-05-02T03:58:55.466Z,9.443538
2023-05-02T03:59:55.383Z,9.443574
2023-05-02T04:00:55.381Z,9.443603
2023-05-02T04:01:55.441Z,9.443625
2023-05-02T04:02:55.468Z,9.443637
2023-05-02T04:03:55.380Z,9.443647
2023-05-02T04:04:55.392Z,9.443624
2023-05-02T04:05:55.371Z,9.443707
2023-05-02T04:06:55.402Z,9.443664
2023-05-02T04:07:55.311Z,9.443593
2023-05-02T04:08:55.284Z,9.443558
2023-05-02T04:09:55.279Z,9.443606
2023-05-02T04:10:55.328Z,9.443568
2023-05-02T04:11:55.342Z,9.443658
2023-05-02T04:12:55.271Z,9.443598
2023-05-02T04:13:55.249Z,9.443722
2023-05-02T04:14:55.268Z,9.443761
2023-05-02T04:15:55.272Z,9.443685
2023-05-02T04:16:55.344Z,9.443719
2023-05-02T04:17:55.306Z,9.443772
2023-05-02T04:18:55.243Z,9.443804
2023-05-02T04:19:55.213Z,9.443720
2023-05-02T04:20:55.272Z,9.443729
2023-05-02T04:21:55.201Z,9.443727
2023-05-02T04:22:55.245Z,9.443642
2023-05-02T04:23:55.188Z,9.443662
2023-05-02T04:24:55.212Z,9.443690
2023-05-02T04:25:55.208Z,9.443742
2023-05-02T04:26:55.221Z,9.443716
2023-05-02T04:27:55.238Z,9.443723
2023-05-02T04:28:55.186Z,9.443752
2023-05-02T04:29:55.188Z,9.443708
2023-05-02T04:30:55.227Z,9.443699
2023-05-02T04:31:55.141Z,9.443741
2023-05-02T04:32:55.250Z,9.443808
2023-05-02T04:33:55.136Z,9.443744
2023-05-02T04:34:56.254Z,9.443736
2023-05-02T04:35:55.158Z,9.443751
2023-05-02T04:36:55.095Z,9.443707
2023-05-02T04:37:55.100Z,9.443668
2023-05-02T04:38:55.124Z,9.443675
2023-05-02T04:39:55.086Z,9.443705
2023-05-02T04:40:55.100Z,9.443782
2023-05-02T04:41:55.082Z,9.443820
2023-05-02T04:42:55.059Z,9.443811
2023-05-02T04:43:55.079Z,9.443694
2023-05-02T04:44:55.065Z,9.443642
2023-05-02T04:45:55.106Z,9.443645
2023-05-02T04:46:55.120Z,9.443713
2023-05-02T04:47:55.122Z,9.443797
2023-05-02T04:48:55.026Z,9.443726
2023-05-02T04:49:55.071Z,9.443771
2023-05-02T04:50:55.054Z,9.443764
2023-05-02T04:51:55.048Z,9.443779
2023-05-02T04:52:55.001Z,9.443667
2023-05-02T04:53:55.011Z,9.443676
2023-05-02T04:54:54.994Z,9.443634
2023-05-02T04:55:55.002Z,9.443668
2023-05-02T04:56:55.034Z,9.443798
2023-05-02T04:57:54.966Z,9.443793
2023-05-02T04:58:54.995Z,9.443697
2023-05-02T04:59:55.017Z,9.443747
2023-05-02T05:00:55.149Z,9.443833
2023-05-02T05:01:55.011Z,9.443684
2023-05-02T05:02:55.721Z,9.443599
2023-05-02T05:03:55.016Z,9.443680
2023-05-02T05:04:54.957Z,9.443625
2023-05-02T05:05:54.958Z,9.443611
2023-05-02T05:06:55.042Z,9.443542
2023-05-02T05:07:54.893Z,9.443613
2023-05-02T05:08:54.899Z,9.443684
2023-05-02T05:09:54.905Z,9.443812
2023-05-02T05:10:54.878Z,9.443697
2023-05-02T05:11:54.857Z,9.443614
2023-05-02T05:12:54.883Z,9.443650
2023-05-02T05:13:54.861Z,9.443788
2023-05-02T05:14:54.878Z,9.443652
2023-05-02T05:15:54.893Z,9.443534
2023-05-02T05:16:54.838Z,9.443583
2023-05-02T05:17:54.837Z,9.443592
2023-05-02T05:18:54.831Z,9.443642
2023-05-02T05:19:55.857Z,9.443457
2023-05-02T05:20:54.811Z,9.443430
2023-05-02T05:21:54.824Z,9.443407
2023-05-02T05:22:54.825Z,9.443545
2023-05-02T05:23:54.798Z,9.443601
2023-05-02T05:24:54.810Z,9.443491
2023-05-02T05:25:54.781Z,9.443551
2023-05-02T05:26:55.770Z,9.443735
2023-05-02T05:27:54.769Z,9.443666
2023-05-02T05:28:54.777Z,9.443571
2023-05-02T05:29:54.747Z,9.443579
2023-05-02T05:30:54.734Z,9.443497
2023-05-02T05:31:54.817Z,9.443572
2023-05-02T05:32:54.806Z,9.443621
2023-05-02T05:33:54.769Z,9.443719
2023-05-02T05:34:54.721Z,9.443625
2023-05-02T05:35:54.733Z,9.443562
2023-05-02T05:36:54.711Z,9.443518
2023-05-02T05:37:54.728Z,9.443439
2023-05-02T05:38:54.689Z,9.443610
2023-05-02T05:39:54.716Z,9.443610
2023-05-02T05:40:54.737Z,9.443544
2023-05-02T05:41:54.675Z,9.443652
2023-05-02T05:42:54.683Z,9.443570
2023-05-02T05:43:54.685Z,9.443568
2023-05-02T05:44:54.641Z,9.443497
2023-05-02T05:45:54.818Z,9.443506
2023-05-02T05:46:54.733Z,9.443575
2023-05-02T05:47:54.690Z,9.443584
2023-05-02T05:48:54.626Z,9.443594
2023-05-02T05:49:54.643Z,9.443461
2023-05-02T05:50:54.660Z,9.443520
2023-05-02T05:51:54.615Z,9.443481
2023-05-02T05:52:54.623Z,9.443539
2023-05-02T05:53:54.609Z,9.443418
2023-05-02T05:54:54.597Z,9.443482
2023-05-02T05:55:54.609Z,9.443232
2023-05-02T05:56:54.580Z,9.443592
2023-05-02T05:57:54.592Z,9.443526
2023-05-02T05:58:54.586Z,9.443368
2023-05-02T05:59:54.576Z,9.443420
2023-05-02T06:00:54.576Z,9.443553
2023-05-02T06:01:54.572Z,9.443571
2023-05-02T06:02:54.582Z,9.443533
2023-05-02T06:03:54.571Z,9.443610
2023-05-02T06:04:54.569Z,9.443599
2023-05-02T06:05:54.543Z,9.443498
2023-05-02T06:06:54.560Z,9.443553
2023-05-02T06:07:54.484Z,9.443606
2023-05-02T06:08:54.515Z,9.443675
2023-05-02T06:09:54.505Z,9.443657
2023-05-02T06:10:54.491Z,9.443586
2023-05-02T06:11:54.479Z,9.443389
2023-05-02T06:12:54.486Z,9.443456
2023-05-02T06:13:54.474Z,9.443501
2023-05-02T06:14:54.451Z,9.443616
2023-05-02T06:15:54.485Z,9.443691
2023-05-02T06:16:54.752Z,9.443733
2023-05-02T06:17:54.465Z,9.443666
2023-05-02T06:18:54.417Z,9.443635
2023-05-02T06:19:54.420Z,9.443678
2023-05-02T06:20:54.698Z,9.443706
2023-05-02T06:21:54.415Z,9.443783
2023-05-02T06:22:54.397Z,9.443756
2023-05-02T06:23:54.438Z,9.443749
2023-05-02T06:24:54.374Z,9.443755
2023-05-02T06:25:54.399Z,9.443891
2023-05-02T06:26:54.384Z,9.443789
2023-05-02T06:27:54.371Z,9.443823
2023-05-02T06:28:54.362Z,9.443778
2023-05-02T06:29:54.342Z,9.443526
2023-05-02T06:30:54.329Z,9.443541
2023-05-02T06:31:54.376Z,9.443584
2023-05-02T06:32:54.423Z,9.443542
2023-05-02T06:33:54.311Z,9.443566
2023-05-02T06:34:54.324Z,9.443696
2023-05-02T06:35:54.330Z,9.443400
2023-05-02T06:36:54.297Z,9.443618
2023-05-02T06:37:54.288Z,9.443642
2023-05-02T06:38:54.291Z,9.443675
2023-05-02T06:39:54.291Z,9.443748
2023-05-02T06:40:54.267Z,9.443756
2023-05-02T06:41:54.261Z,9.443753
2023-05-02T06:42:54.279Z,9.443738
2023-05-02T06:43:54.221Z,9.443789
2023-05-02T06:44:54.236Z,9.443782
2023-05-02T06:45:54.223Z,9.443782
2023-05-02T06:46:54.295Z,9.443650
2023-05-02T06:47:54.331Z,9.443635
2023-05-02T06:48:54.246Z,9.443583
2023-05-02T06:49:54.239Z,9.443707
2023-05-02T06:50:54.218Z,9.443641
2023-05-02T06:51:54.179Z,9.443604
2023-05-02T06:52:54.225Z,9.443707
2023-05-02T06:53:54.242Z,9.443712
2023-05-02T06:54:54.158Z,9.443644
2023-05-02T06:55:54.165Z,9.443787
2023-05-02T06:56:54.210Z,9.443809
2023-05-02T06:57:54.134Z,9.443778
2023-05-02T06:58:54.151Z,9.443809
2023-05-02T06:59:54.159Z,9.443779
2023-05-02T07:00:54.170Z,9.443778
2023-05-02T07:01:54.213Z,9.443750
2023-05-02T07:02:54.154Z,9.443784
2023-05-02T07:03:54.152Z,9.443773
2023-05-02T07:04:54.107Z,9.443843
2023-05-02T07:05:55.116Z,9.443677
2023-05-02T07:06:54.169Z,9.443766
2023-05-02T07:07:54.100Z,9.443718
2023-05-02T07:08:54.081Z,9.443758
2023-05-02T07:09:54.076Z,9.443741
2023-05-02T07:10:54.066Z,9.443778
2023-05-02T07:11:54.088Z,9.443789
2023-05-02T07:12:54.064Z,9.443711
2023-05-02T07:13:54.033Z,9.443832
2023-05-02T07:14:54.140Z,9.443812
2023-05-02T07:15:54.040Z,9.443819
2023-05-02T07:16:54.128Z,9.443831
2023-05-02T07:17:54.030Z,9.443769
2023-05-02T07:18:54.029Z,9.443743
2023-05-02T07:19:54.017Z,9.443804
2023-05-02T07:20:54.004Z,9.443719
2023-05-02T07:21:54.017Z,9.443727
2023-05-02T07:22:54.002Z,9.443583
2023-05-02T07:23:54.006Z,9.443467
2023-05-02T07:24:54.077Z,9.443644
2023-05-02T07:25:53.969Z,9.443685
2023-05-02T07:26:53.983Z,9.443649
2023-05-02T07:27:53.967Z,9.443769
2023-05-02T07:28:54.003Z,9.443816
2023-05-02T07:29:53.930Z,9.443707
2023-05-02T07:30:53.955Z,9.443680
2023-05-02T07:31:53.984Z,9.443761
2023-05-02T07:32:53.969Z,9.443725
2023-05-02T07:33:53.954Z,9.443770
2023-05-02T07:34:54.703Z,9.443603
2023-05-02T07:35:53.912Z,9.443633
2023-05-02T07:36:53.908Z,9.443782
2023-05-02T07:37:53.903Z,9.443764
2023-05-02T07:38:53.998Z,9.443583
2023-05-02T07:39:53.905Z,9.443663
2023-05-02T07:40:53.869Z,9.443695
2023-05-02T07:41:53.864Z,9.443627
2023-05-02T07:42:53.862Z,9.443666
2023-05-02T07:43:53.923Z,9.443624
2023-05-02T07:44:53.879Z,9.443607
2023-05-02T07:45:53.864Z,9.443577
2023-05-02T07:46:53.824Z,9.443688
2023-05-02T07:47:53.906Z,9.443659
2023-05-02T07:48:53.855Z,9.443663
2023-05-02T07:49:53.824Z,9.443657
2023-05-02T07:50:53.798Z,9.443674
2023-05-02T07:51:53.804Z,9.443568
2023-05-02T07:52:53.798Z,9.443576
2023-05-02T07:53:53.806Z,9.443580
2023-05-02T07:54:53.820Z,9.443657
2023-05-02T07:55:53.785Z,9.443666
2023-05-02T07:56:53.780Z,9.443650
2023-05-02T07:57:53.778Z,9.443560
2023-05-02T07:58:53.775Z,9.443673
2023-05-02T07:59:53.753Z,9.443686
2023-05-02T08:00:53.798Z,9.443691
2023-05-02T08:01:53.749Z,9.443620
2023-05-02T08:02:53.808Z,9.443668
2023-05-02T08:03:53.822Z,9.443600
2023-05-02T08:04:53.817Z,9.443601
2023-05-02T08:05:53.743Z,9.443622
2023-05-02T08:06:53.828Z,9.443714
2023-05-02T08:07:53.731Z,9.443666
2023-05-02T08:08:53.736Z,9.443612
2023-05-02T08:09:53.704Z,9.443591
2023-05-02T08:10:53.686Z,9.443643
2023-05-02T08:11:54.670Z,9.443720
2023-05-02T08:12:53.681Z,9.443705
2023-05-02T08:13:53.654Z,9.443626
2023-05-02T08:14:53.666Z,9.443637
2023-05-02T08:15:54.717Z,9.443746
2023-05-02T08:16:53.650Z,9.443767
2023-05-02T08:17:53.654Z,9.443716
2023-05-02T08:18:53.682Z,9.443680
2023-05-02T08:19:53.608Z,9.443660
2023-05-02T08:20:53.670Z,9.443673
2023-05-02T08:21:53.615Z,9.443606
2023-05-02T08:22:53.642Z,9.443680
2023-05-02T08:23:53.620Z,9.443610
2023-05-02T08:24:53.596Z,9.443598
2023-05-02T08:25:53.616Z,9.443681
2023-05-02T08:26:53.576Z,9.443672
2023-05-02T08:27:53.591Z,9.443629
2023-05-02T08:28:53.588Z,9.443666
2023-05-02T08:29:53.557Z,9.443683
2023-05-02T08:30:53.566Z,9.443726
2023-05-02T08:31:53.651Z,9.443710
2023-05-02T08:32:53.621Z,9.443710
2023-05-02T08:33:53.549Z,9.443707
2023-05-02T08:34:53.518Z,9.443701
2023-05-02T08:35:53.537Z,9.443708
2023-05-02T08:36:53.963Z,9.443711
2023-05-02T08:37:53.499Z,9.443715
2023-05-02T08:38:53.500Z,9.443718
2023-05-02T08:39:53.524Z,9.443719
2023-05-02T08:40:53.467Z,9.443613
2023-05-02T08:41:53.490Z,9.443671
2023-05-02T08:42:53.454Z,9.443732
2023-05-02T08:43:53.460Z,9.443728
2023-05-02T08:44:53.466Z,9.443675
2023-05-02T08:45:53.449Z,9.443697
2023-05-02T08:46:53.488Z,9.443718
2023-05-02T08:47:53.439Z,9.443791
2023-05-02T08:48:53.427Z,9.443801
2023-05-02T08:49:53.448Z,9.443805
2023-05-02T08:50:53.402Z,9.443758
2023-05-02T08:51:53.422Z,9.443738
2023-05-02T08:52:53.392Z,9.443384
2023-05-02T08:53:53.431Z,9.443686
2023-05-02T08:54:53.373Z,9.444000
2023-05-02T08:55:53.379Z,9.444029
2023-05-02T08:56:53.363Z,9.443979
2023-05-02T08:57:53.379Z,9.443813
2023-05-02T08:58:53.356Z,9.443730
2023-05-02T08:59:53.340Z,9.443828
2023-05-02T09:00:53.560Z,9.443827
2023-05-02T09:01:53.378Z,9.443694
2023-05-02T09:02:53.331Z,9.443783
2023-05-02T09:03:53.348Z,9.443742
2023-05-02T09:04:53.328Z,9.443745
2023-05-02T09:05:53.390Z,9.443759
2023-05-02T09:06:53.377Z,9.443839
2023-05-02T09:07:53.305Z,9.443816
2023-05-02T09:08:53.335Z,9.443904
2023-05-02T09:09:53.399Z,9.444117
2023-05-02T09:10:53.309Z,9.444300
2023-05-02T09:11:53.287Z,9.444414
2023-05-02T09:12:53.287Z,9.444197
2023-05-02T09:13:53.278Z,9.444138
2023-05-02T09:14:53.267Z,9.444118
2023-05-02T09:15:53.249Z,9.444109
2023-05-02T09:16:53.596Z,9.444278
2023-05-02T09:17:53.242Z,9.444311
2023-05-02T09:18:53.227Z,9.444126
2023-05-02T09:19:53.219Z,9.443804
2023-05-02T09:20:53.222Z,9.443769
2023-05-02T09:21:53.231Z,9.443746
2023-05-02T09:22:53.236Z,9.443728
2023-05-02T09:23:53.200Z,9.443791
2023-05-02T09:24:53.196Z,9.443836
2023-05-02T09:25:53.181Z,9.443854
2023-05-02T09:26:53.214Z,9.443808
2023-05-02T09:27:53.196Z,9.443844
2023-05-02T09:28:53.160Z,9.443812
2023-05-02T09:29:53.172Z,9.443707
2023-05-02T09:30:53.174Z,9.443734
2023-05-02T09:31:56.092Z,9.443711
2023-05-02T09:32:54.175Z,9.443789
2023-05-02T09:33:53.140Z,9.443764
2023-05-02T09:34:53.137Z,9.443801
2023-05-02T09:35:53.124Z,9.443744
2023-05-02T09:36:53.150Z,9.443812
2023-05-02T09:37:53.130Z,9.443781
2023-05-02T09:38:53.098Z,9.443769
2023-05-02T09:39:53.407Z,9.443778
2023-05-02T09:40:53.269Z,9.443785
2023-05-02T09:41:53.071Z,9.443805
2023-05-02T09:42:53.122Z,9.443750
2023-05-02T09:43:54.071Z,9.443806
2023-05-02T09:44:53.073Z,9.443800
2023-05-02T09:45:53.091Z,9.443823
2023-05-02T09:46:53.117Z,9.443826
2023-05-02T09:47:53.140Z,9.443815
2023-05-02T09:48:53.091Z,9.443764
2023-05-02T09:49:53.065Z,9.443694
2023-05-02T09:50:53.045Z,9.443727
2023-05-02T09:51:53.027Z,9.443788
2023-05-02T09:52:53.015Z,9.443816
2023-05-02T09:53:53.008Z,9.443846
2023-05-02T09:54:53.056Z,9.443845
2023-05-02T09:55:52.994Z,9.443841
2023-05-02T09:56:53.061Z,9.443808
2023-05-02T09:57:52.958Z,9.443737
2023-05-02T09:58:53.006Z,9.443714
2023-05-02T09:59:53.023Z,9.443820
2023-05-02T10:00:52.948Z,9.443713
2023-05-02T10:01:53.050Z,9.443736
2023-05-02T10:02:53.150Z,9.443763
2023-05-02T10:03:53.012Z,9.443787
2023-05-02T10:04:52.947Z,9.443822
2023-05-02T10:05:52.962Z,9.443767
2023-05-02T10:06:52.995Z,9.443805
2023-05-02T10:07:52.910Z,9.443847
2023-05-02T10:08:52.906Z,9.443779
2023-05-02T10:09:52.905Z,9.443769
2023-05-02T10:10:52.882Z,9.443750
2023-05-02T10:11:52.970Z,9.443712
2023-05-02T10:12:52.892Z,9.443727
2023-05-02T10:13:52.885Z,9.443800
2023-05-02T10:14:52.870Z,9.443712
2023-05-02T10:15:52.956Z,9.443759
2023-05-02T10:16:52.870Z,9.443727
2023-05-02T10:17:52.953Z,9.443713
2023-05-02T10:18:52.842Z,9.443725
2023-05-02T10:19:52.860Z,9.443718
2023-05-02T10:20:52.823Z,9.443726
2023-05-02T10:21:52.867Z,9.443700
2023-05-02T10:22:52.843Z,9.443708
2023-05-02T10:23:52.818Z,9.443763
2023-05-02T10:24:52.796Z,9.443733
2023-05-02T10:25:52.793Z,9.443715
2023-05-02T10:26:52.790Z,9.443699
2023-05-02T10:27:52.812Z,9.443758
2023-05-02T10:28:52.796Z,9.443738
2023-05-02T10:29:52.771Z,9.443732
2023-05-02T10:30:52.758Z,9.443730
2023-05-02T10:31:52.822Z,9.443720
2023-05-02T10:32:52.792Z,9.443702
2023-05-02T10:33:52.730Z,9.443747
2023-05-02T10:34:52.746Z,9.443729
2023-05-02T10:35:52.724Z,9.443620
2023-05-02T10:36:52.723Z,9.443663
2023-05-02T10:37:52.740Z,9.443720
2023-05-02T10:38:52.706Z,9.443676
2023-05-02T10:39:52.712Z,9.443708
2023-05-02T10:40:52.716Z,9.443719
2023-05-02T10:41:52.731Z,9.443745
2023-05-02T10:42:52.770Z,9.443715
2023-05-02T10:43:52.681Z,9.443705
2023-05-02T10:44:52.655Z,9.443685
2023-05-02T10:45:52.656Z,9.443747
2023-05-02T10:46:52.734Z,9.443674
2023-05-02T10:47:52.727Z,9.443698
2023-05-02T10:48:52.672Z,9.443672
2023-05-02T10:49:53.768Z,9.443719
2023-05-02T10:50:52.650Z,9.443738
2023-05-02T10:51:52.637Z,9.443690
2023-05-02T10:52:52.618Z,9.443734
2023-05-02T10:53:52.624Z,9.443754
2023-05-02T10:54:52.613Z,9.443771
2023-05-02T10:55:52.648Z,9.443667
2023-05-02T10:56:52.640Z,9.443645
2023-05-02T10:57:52.584Z,9.443702
2023-05-02T10:58:52.581Z,9.443721
2023-05-02T10:59:52.636Z,9.443700
2023-05-02T11:00:52.725Z,9.443696
2023-05-02T11:01:52.634Z,9.443706
2023-05-02T11:02:52.753Z,9.443721
2023-05-02T11:03:52.561Z,9.443744
2023-05-02T11:04:52.540Z,9.443741
2023-05-02T11:05:52.557Z,9.443721
2023-05-02T11:06:52.525Z,9.443770
2023-05-02T11:07:52.539Z,9.443739
2023-05-02T11:08:52.560Z,9.443715
2023-05-02T11:09:52.582Z,9.443727
2023-05-02T11:10:52.530Z,9.443749
2023-05-02T11:11:52.518Z,9.443740
2023-05-02T11:12:52.560Z,9.443774
2023-05-02T11:13:52.512Z,9.443791
2023-05-02T11:14:52.502Z,9.443723
2023-05-02T11:15:52.489Z,9.443687
2023-05-02T11:16:52.554Z,9.443749
2023-05-02T11:17:52.510Z,9.443732
2023-05-02T11:18:52.497Z,9.443640
2023-05-02T11:19:52.444Z,9.443650
2023-05-02T11:20:52.448Z,9.443644
2023-05-02T11:21:52.488Z,9.443649
2023-05-02T11:22:52.457Z,9.443676
2023-05-02T11:23:52.406Z,9.443656
2023-05-02T11:24:52.426Z,9.443630
2023-05-02T11:25:52.424Z,9.443640
2023-05-02T11:26:52.406Z,9.443718
2023-05-02T11:27:52.410Z,9.443752
2023-05-02T11:28:52.372Z,9.443734
2023-05-02T11:29:52.383Z,9.443595
2023-05-02T11:30:52.388Z,9.443664
2023-05-02T11:31:52.423Z,9.443657
2023-05-02T11:32:52.383Z,9.443617
2023-05-02T11:33:52.440Z,9.443480
2023-05-02T11:34:52.341Z,9.443521
2023-05-02T11:35:53.296Z,9.443455
2023-05-02T11:36:52.347Z,9.443593
2023-05-02T11:37:52.309Z,9.443493
2023-05-02T11:38:52.360Z,9.443499
2023-05-02T11:39:52.357Z,9.443464
2023-05-02T11:40:52.301Z,9.443422
2023-05-02T11:41:52.308Z,9.443464
2023-05-02T11:42:52.279Z,9.443610
2023-05-02T11:43:53.290Z,9.443743
2023-05-02T11:44:52.280Z,9.443695
2023-05-02T11:45:52.317Z,9.443674